Strona główna
METAR-TAF:

METAR-TAF

Lotnisko :

Cape May County Airport

Wildwood, New Jersey, Stany Zjednoczone

Szerokość geograficzna: 39-01N, Długość geograficzna: 074-55W, wysokość: 7 m

Aktualna obserwacja pogody

Raport powstał 52 minut temu, godzina 10:56 UTC
Wiatr 7 kt od południe
Temperatura 23°C
Wilgotność 94%
Ciśnienie 1010 hPa
Widzialność: 16.1 km
Rozproszone chmury na wysokości 500 ft

METAR: KWWD 251056Z AUTO 19007KT 10SM SCT005 23/22 A2982 RMK AO2 SLP100 T02280217

czas: 07:48 (11:48 UTC)


TAF: brakujący

Obserwacja i prognoza pogody dla ponad 4000 lotnisk (raport METAR i TAF).

Dostępne stacje oznaczono żółtymi i czerwonymi punktami na mapie.

Najedź kursorem aby zobaczyć nazwę stacji.

Kliknij aby zobaczyć obserwacje i prognozy pogody.

Aby zmienić mapę: kliknij na zielony przycisk z czarnym krzyżykiem, aby powiększyć; na zielony przycisk z myślnikiem, aby pomniejszyć; na zielone strzałki, aby przejść do map sąsiednich.


METAR-TAF: